Time;durP1;ratioP1;P1;durP2;ratioP2;P2;SDS_P1;SDS_P2;PMS_P1;PMS_P2;Temp;Humidity;BMP_temperature;BMP_pressure;BME280_temperature;BME280_humidity;BME280_pressure;Samples;Min_cycle;Max_cycle;Signal;HPM_P1;HPM_P2
2024/01/15 00:00:04;;;;;;;9.77;1.50;;;3.40;99.90;;;;;;5037822;28;20033;-80
2024/01/15 00:02:29;;;;;;;10.38;2.33;;;3.40;99.90;;;;;;5027137;28;20389;-81
2024/01/15 00:04:55;;;;;;;12.40;2.17;;;3.40;99.90;;;;;;5031045;28;20036;-80
2024/01/15 00:07:21;;;;;;;10.65;1.98;;;3.40;99.90;;;;;;5039759;28;20029;-80
2024/01/15 00:09:46;;;;;;;11.65;2.05;;;3.50;99.90;;;;;;5040828;28;20032;-81
2024/01/15 00:12:12;;;;;;;13.13;2.13;;;3.40;99.90;;;;;;5040256;28;20033;-80
2024/01/15 00:14:37;;;;;;;12.18;2.00;;;3.40;99.90;;;;;;5031894;28;20037;-80
2024/01/15 00:17:03;;;;;;;13.95;1.60;;;3.40;99.90;;;;;;5037423;28;20139;-80
2024/01/15 00:19:32;;;;;;;15.68;1.80;;;3.40;99.90;;;;;;5042644;28;20068;-80
2024/01/15 00:21:57;;;;;;;7.95;1.35;;;3.40;99.90;;;;;;5038902;28;20038;-80
2024/01/15 00:24:23;;;;;;;7.18;1.33;;;3.40;99.90;;;;;;5042345;28;20335;-78
2024/01/15 00:26:48;;;;;;;9.50;1.65;;;3.50;99.90;;;;;;5028072;28;20108;-81
2024/01/15 00:29:14;;;;;;;7.82;1.27;;;3.50;99.90;;;;;;5032471;28;20482;-78
2024/01/15 00:31:39;;;;;;;8.20;1.55;;;3.50;99.90;;;;;;5034496;28;20026;-81
2024/01/15 00:34:05;;;;;;;13.82;1.63;;;3.50;99.90;;;;;;5034443;28;20013;-80
2024/01/15 00:36:31;;;;;;;29.58;3.17;;;3.50;99.90;;;;;;5028934;28;20033;-80
2024/01/15 00:38:56;;;;;;;9.68;2.03;;;3.50;99.90;;;;;;5032956;28;20500;-79
2024/01/15 00:41:22;;;;;;;9.70;1.40;;;3.50;99.90;;;;;;5034472;28;20029;-80
2024/01/15 00:43:49;;;;;;;11.02;1.40;;;3.50;99.90;;;;;;5033729;28;20029;-80
2024/01/15 00:46:15;;;;;;;7.97;1.45;;;3.60;99.90;;;;;;5029670;28;20358;-80
2024/01/15 00:48:40;;;;;;;8.32;1.40;;;3.50;99.90;;;;;;5032038;28;20374;-80
2024/01/15 00:51:06;;;;;;;11.57;1.20;;;3.50;99.90;;;;;;5033510;28;20045;-81
2024/01/15 00:53:31;;;;;;;5.75;1.55;;;3.50;99.90;;;;;;5034093;28;20474;-80
2024/01/15 00:55:57;;;;;;;15.23;1.92;;;3.40;99.90;;;;;;5029418;28;20056;-80
2024/01/15 00:58:23;;;;;;;14.38;2.10;;;3.50;99.90;;;;;;5030917;28;20029;-80
2024/01/15 01:00:48;;;;;;;7.00;1.40;;;3.40;99.90;;;;;;5034062;28;20036;-80
2024/01/15 01:03:14;;;;;;;7.72;1.42;;;3.40;99.90;;;;;;5034055;28;20033;-80
2024/01/15 01:05:39;;;;;;;12.20;1.92;;;3.40;99.90;;;;;;5030566;28;20500;-80
2024/01/15 01:08:05;;;;;;;14.88;1.27;;;3.40;99.90;;;;;;5029988;28;20036;-81
2024/01/15 01:10:31;;;;;;;11.70;2.03;;;3.30;99.90;;;;;;5033712;28;20029;-80
2024/01/15 01:12:56;;;;;;;13.05;1.73;;;3.40;99.90;;;;;;5032756;28;20029;-81
2024/01/15 01:15:22;;;;;;;7.90;1.50;;;3.30;99.90;;;;;;5033206;28;20025;-80
2024/01/15 01:17:47;;;;;;;12.93;2.88;;;3.40;99.90;;;;;;5024616;28;20045;-80
2024/01/15 01:20:15;;;;;;;9.98;1.55;;;3.40;99.90;;;;;;5032412;28;20033;-80
2024/01/15 01:22:40;;;;;;;13.25;1.52;;;3.40;99.90;;;;;;5033192;28;20029;-80
2024/01/15 01:25:06;;;;;;;11.35;1.92;;;3.40;99.90;;;;;;5032712;28;20143;-80
2024/01/15 01:27:32;;;;;;;8.20;2.03;;;3.40;99.90;;;;;;5023643;28;20044;-81
2024/01/15 01:29:58;;;;;;;8.60;1.55;;;3.40;99.90;;;;;;5033688;28;20025;-80
2024/01/15 01:32:23;;;;;;;4.55;1.27;;;3.30;99.90;;;;;;5033031;28;20025;-80
2024/01/15 01:34:49;;;;;;;7.78;1.73;;;3.40;99.90;;;;;;5033230;28;20369;-79
2024/01/15 01:37:15;;;;;;;7.75;1.45;;;3.40;99.90;;;;;;5033226;28;20037;-80
2024/01/15 01:39:41;;;;;;;7.07;2.30;;;3.30;99.90;;;;;;5032168;28;20032;-80
2024/01/15 01:42:07;;;;;;;17.92;1.90;;;3.30;99.90;;;;;;5033201;28;20113;-80
2024/01/15 01:44:33;;;;;;;5.75;1.40;;;3.40;99.90;;;;;;5032907;28;20464;-80
2024/01/15 01:47:00;;;;;;;12.25;1.77;;;3.30;99.90;;;;;;5032448;28;20117;-80
2024/01/15 01:49:27;;;;;;;10.63;2.75;;;3.30;99.90;;;;;;5032719;28;20032;-80
2024/01/15 01:51:53;;;;;;;10.52;1.80;;;3.30;99.90;;;;;;5029625;28;20064;-81
2024/01/15 01:54:20;;;;;;;8.70;1.63;;;3.30;99.90;;;;;;5041108;28;20111;-80
2024/01/15 01:56:48;;;;;;;13.82;1.70;;;3.30;99.90;;;;;;5032773;28;20171;-80
2024/01/15 01:59:14;;;;;;;11.43;1.60;;;3.30;99.90;;;;;;5041346;28;20029;-80
2024/01/15 02:01:41;;;;;;;11.60;1.35;;;3.20;99.90;;;;;;5031299;28;20554;-79
2024/01/15 02:04:08;;;;;;;6.32;1.48;;;3.20;99.90;;;;;;5036921;28;20492;-79
2024/01/15 02:06:33;;;;;;;5.05;1.10;;;3.20;99.90;;;;;;5037328;28;20033;-79
2024/01/15 02:08:59;;;;;;;6.47;1.90;;;3.20;99.90;;;;;;5037624;28;20045;-79
2024/01/15 02:11:25;;;;;;;6.28;1.45;;;3.20;99.90;;;;;;5040333;28;20036;-81
2024/01/15 02:13:50;;;;;;;6.57;1.40;;;3.30;99.90;;;;;;5030083;28;20120;-81
2024/01/15 02:16:16;;;;;;;8.93;1.10;;;3.30;99.90;;;;;;5036318;28;20120;-80
2024/01/15 02:18:43;;;;;;;14.75;2.65;;;3.30;99.90;;;;;;5036934;28;20075;-81
2024/01/15 02:21:09;;;;;;;7.07;0.90;;;3.30;99.90;;;;;;5039913;28;20025;-81
2024/01/15 02:23:35;;;;;;;9.38;1.65;;;3.30;99.90;;;;;;5034763;28;20094;-81
2024/01/15 02:26:01;;;;;;;9.43;2.00;;;3.30;99.90;;;;;;5032925;28;20018;-80
2024/01/15 02:28:27;;;;;;;6.60;1.60;;;3.30;99.90;;;;;;5037874;28;20384;-79
2024/01/15 02:30:52;;;;;;;11.07;1.65;;;3.20;99.90;;;;;;5039255;28;20029;-79
2024/01/15 02:33:18;;;;;;;4.25;1.10;;;3.20;99.90;;;;;;5040242;28;20020;-80
2024/01/15 02:35:43;;;;;;;12.95;2.90;;;3.20;99.90;;;;;;5034851;28;20034;-79
2024/01/15 02:38:09;;;;;;;7.63;1.20;;;3.20;99.90;;;;;;5039463;28;20030;-81
2024/01/15 02:40:35;;;;;;;10.10;1.33;;;3.20;99.90;;;;;;5040000;28;20013;-79
2024/01/15 02:43:00;;;;;;;3.47;1.33;;;3.20;99.90;;;;;;5036463;28;20111;-80
2024/01/15 02:45:26;;;;;;;8.20;1.10;;;3.20;99.90;;;;;;5039765;28;20163;-81
2024/01/15 02:47:52;;;;;;;10.30;1.70;;;3.20;99.90;;;;;;5037766;28;20441;-80
2024/01/15 02:50:17;;;;;;;6.25;1.25;;;3.20;99.90;;;;;;5029601;28;20036;-79
2024/01/15 02:52:43;;;;;;;8.05;2.45;;;3.30;99.90;;;;;;5031241;28;20505;-79
2024/01/15 02:55:09;;;;;;;7.10;1.15;;;3.20;99.90;;;;;;5037713;28;20110;-79
2024/01/15 02:57:34;;;;;;;9.95;1.38;;;3.20;99.90;;;;;;5035746;28;20036;-79
2024/01/15 03:00:00;;;;;;;8.02;1.20;;;3.20;99.90;;;;;;5039151;28;20025;-79
2024/01/15 03:02:26;;;;;;;6.30;0.98;;;3.20;99.90;;;;;;5030515;28;20075;-79
2024/01/15 03:04:51;;;;;;;5.30;1.27;;;3.20;99.90;;;;;;5035445;28;20029;-79
2024/01/15 03:07:18;;;;;;;8.55;0.90;;;3.20;99.90;;;;;;5036497;28;20142;-79
2024/01/15 03:09:43;;;;;;;8.13;1.05;;;3.20;99.90;;;;;;5039754;28;20113;-79
2024/01/15 03:12:09;;;;;;;8.15;1.17;;;3.10;99.90;;;;;;5035460;28;20080;-79
2024/01/15 03:14:35;;;;;;;8.35;1.08;;;3.10;99.90;;;;;;5027927;28;20076;-79
2024/01/15 03:17:01;;;;;;;5.03;1.42;;;3.20;99.90;;;;;;5029455;28;20037;-79
2024/01/15 03:19:27;;;;;;;6.00;0.93;;;3.20;99.90;;;;;;5032050;28;20025;-80
2024/01/15 03:21:52;;;;;;;3.28;1.02;;;3.10;99.90;;;;;;5036310;28;20037;-79
2024/01/15 03:24:18;;;;;;;4.65;1.20;;;3.10;99.90;;;;;;5036597;28;20048;-79
2024/01/15 03:26:44;;;;;;;6.00;1.05;;;3.10;99.90;;;;;;5026640;28;20115;-79
2024/01/15 03:29:09;;;;;;;8.45;0.98;;;3.20;99.90;;;;;;5038442;28;20075;-80
2024/01/15 03:31:35;;;;;;;4.53;0.80;;;3.20;99.90;;;;;;5034771;28;20437;-79
2024/01/15 03:34:00;;;;;;;3.92;0.88;;;3.10;99.90;;;;;;5039840;28;20029;-79
2024/01/15 03:36:26;;;;;;;5.40;1.00;;;3.10;99.90;;;;;;5029726;28;20034;-79
2024/01/15 03:38:52;;;;;;;5.53;0.60;;;3.10;99.90;;;;;;5034267;28;20463;-80
2024/01/15 03:41:17;;;;;;;1.20;0.60;;;3.10;99.90;;;;;;5037882;28;20034;-79
2024/01/15 03:43:43;;;;;;;4.88;0.70;;;3.20;99.90;;;;;;5037032;28;20048;-79
2024/01/15 03:46:08;;;;;;;2.45;0.70;;;3.10;99.90;;;;;;5042710;28;20033;-79
2024/01/15 03:48:34;;;;;;;3.00;1.13;;;3.10;99.90;;;;;;5036575;28;20448;-79
2024/01/15 03:51:00;;;;;;;7.75;1.40;;;3.10;99.90;;;;;;5038337;28;20052;-79
2024/01/15 03:53:25;;;;;;;2.75;0.50;;;3.10;99.90;;;;;;5039049;28;20450;-79
2024/01/15 03:55:52;;;;;;;2.38;0.55;;;3.10;99.90;;;;;;5040751;28;20034;-79
2024/01/15 03:58:17;;;;;;;2.92;0.70;;;3.10;99.90;;;;;;5040178;28;20120;-80
2024/01/15 04:00:43;;;;;;;4.50;0.70;;;3.00;99.90;;;;;;5039987;28;20115;-79
2024/01/15 04:03:09;;;;;;;3.30;0.63;;;3.00;99.90;;;;;;5034048;28;20029;-79
2024/01/15 04:05:34;;;;;;;3.70;0.68;;;3.00;99.90;;;;;;5036360;28;20028;-78
2024/01/15 04:08:00;;;;;;;4.93;0.47;;;3.00;99.90;;;;;;5038941;28;20025;-79
2024/01/15 04:10:25;;;;;;;2.35;0.57;;;3.00;99.90;;;;;;5039994;28;20112;-79
2024/01/15 04:12:51;;;;;;;2.97;0.52;;;3.00;99.90;;;;;;5033787;28;20033;-79
2024/01/15 04:15:17;;;;;;;4.03;1.42;;;2.90;99.90;;;;;;5037644;28;20083;-80
2024/01/15 04:17:43;;;;;;;4.40;0.70;;;2.90;99.90;;;;;;5040228;28;20094;-79
2024/01/15 04:20:09;;;;;;;4.90;0.80;;;2.90;99.90;;;;;;5042192;28;20032;-79
2024/01/15 04:22:35;;;;;;;5.47;1.20;;;3.00;99.90;;;;;;5036418;28;20047;-79
2024/01/15 04:25:01;;;;;;;6.63;0.93;;;3.00;99.90;;;;;;5034247;28;20032;-78
2024/01/15 04:27:27;;;;;;;10.23;1.50;;;2.90;99.90;;;;;;5039498;28;20025;-79
2024/01/15 04:29:52;;;;;;;1.48;0.55;;;3.00;99.90;;;;;;5041501;28;20034;-78
2024/01/15 04:32:18;;;;;;;1.85;0.50;;;3.00;99.90;;;;;;5040880;28;20057;-80
2024/01/15 04:34:44;;;;;;;3.40;0.70;;;2.90;99.90;;;;;;5041842;28;20078;-80
2024/01/15 04:37:09;;;;;;;5.97;0.60;;;3.00;99.90;;;;;;5031254;28;20486;-79
2024/01/15 04:39:35;;;;;;;1.35;0.47;;;3.00;99.90;;;;;;5030922;28;20108;-79
2024/01/15 04:42:00;;;;;;;8.60;0.80;;;3.00;99.90;;;;;;5033690;28;20033;-80
2024/01/15 04:44:26;;;;;;;2.55;0.50;;;3.10;99.90;;;;;;5033967;28;20025;-79
2024/01/15 04:46:52;;;;;;;4.70;0.95;;;3.10;99.90;;;;;;5034286;28;20132;-81
2024/01/15 04:49:17;;;;;;;8.40;0.85;;;3.20;99.90;;;;;;5033186;28;20151;-79
2024/01/15 04:51:43;;;;;;;3.30;0.85;;;3.20;99.90;;;;;;5029218;28;20095;-81
2024/01/15 04:54:08;;;;;;;2.65;0.57;;;3.20;99.90;;;;;;5035033;28;20033;-80
2024/01/15 04:56:34;;;;;;;9.27;0.98;;;3.10;99.90;;;;;;5038207;28;20093;-80
2024/01/15 04:58:59;;;;;;;3.95;0.60;;;3.10;99.90;;;;;;5033854;28;20026;-79
2024/01/15 05:01:25;;;;;;;3.70;1.02;;;3.10;99.90;;;;;;5039098;28;20025;-80
2024/01/15 05:03:50;;;;;;;0.43;0.28;;;3.00;99.90;;;;;;5038029;28;20029;-81
2024/01/15 05:06:16;;;;;;;3.03;0.50;;;3.00;99.90;;;;;;5040794;28;20124;-80
2024/01/15 05:08:41;;;;;;;1.35;0.50;;;2.90;99.90;;;;;;5038055;28;20029;-80
2024/01/15 05:11:07;;;;;;;3.58;0.50;;;2.80;99.90;;;;;;5036632;28;20070;-80
2024/01/15 05:13:32;;;;;;;2.60;0.70;;;2.80;99.90;;;;;;5033479;28;20036;-79
2024/01/15 05:15:58;;;;;;;5.35;0.47;;;2.70;99.90;;;;;;5041283;28;20078;-79
2024/01/15 05:18:24;;;;;;;1.08;0.32;;;2.60;99.90;;;;;;5041375;28;20032;-80
2024/01/15 05:20:49;;;;;;;3.00;0.50;;;2.50;99.90;;;;;;5041160;28;20033;-81
2024/01/15 05:23:15;;;;;;;2.35;0.60;;;2.50;99.90;;;;;;5031692;28;20030;-79
2024/01/15 05:25:40;;;;;;;4.55;0.95;;;2.40;99.90;;;;;;5033904;28;20072;-80
2024/01/15 05:28:06;;;;;;;2.45;0.65;;;2.40;99.90;;;;;;5040809;28;20027;-79
2024/01/15 05:30:32;;;;;;;4.20;0.30;;;2.80;99.90;;;;;;5038265;28;20375;-80
2024/01/15 05:32:57;;;;;;;1.73;0.40;;;2.90;99.90;;;;;;5038906;28;20025;-79
2024/01/15 05:35:23;;;;;;;4.63;0.60;;;2.40;99.90;;;;;;5030337;28;20139;-79
2024/01/15 05:37:49;;;;;;;3.22;0.40;;;2.40;99.90;;;;;;5038995;28;20045;-79
2024/01/15 05:40:14;;;;;;;1.77;0.45;;;2.40;99.90;;;;;;5036605;28;20431;-80
2024/01/15 05:42:41;;;;;;;3.05;0.55;;;2.40;99.90;;;;;;5038877;28;20055;-80
2024/01/15 05:45:07;;;;;;;0.32;0.30;;;2.40;99.90;;;;;;5041179;28;20025;-80
2024/01/15 05:47:33;;;;;;;1.10;0.30;;;2.40;99.90;;;;;;5024555;28;20034;-80
2024/01/15 05:49:58;;;;;;;1.50;0.40;;;2.40;99.90;;;;;;5023051;28;20079;-80
2024/01/15 05:52:24;;;;;;;2.75;0.65;;;2.30;99.90;;;;;;5020375;28;20053;-81
2024/01/15 05:54:50;;;;;;;2.05;0.50;;;2.30;99.90;;;;;;5019312;28;20026;-80
2024/01/15 05:57:16;;;;;;;2.53;0.43;;;2.30;99.90;;;;;;5019526;28;20137;-79
2024/01/15 05:59:43;;;;;;;2.80;1.15;;;2.30;99.90;;;;;;5016338;28;20026;-79
2024/01/15 06:02:08;;;;;;;4.05;1.13;;;2.30;99.90;;;;;;5014864;28;20030;-79
2024/01/15 06:04:34;;;;;;;3.45;0.50;;;2.30;99.90;;;;;;5019393;28;20036;-79
2024/01/15 06:06:59;;;;;;;6.82;0.82;;;2.30;99.90;;;;;;5021976;28;20481;-80
2024/01/15 06:09:25;;;;;;;2.20;0.52;;;2.30;99.90;;;;;;5020499;28;20053;-79
2024/01/15 06:11:50;;;;;;;3.45;0.55;;;2.30;99.90;;;;;;5032633;28;20492;-80
2024/01/15 06:14:16;;;;;;;4.07;0.65;;;2.20;99.90;;;;;;5029720;28;20029;-80
2024/01/15 06:16:41;;;;;;;2.97;1.00;;;2.30;99.90;;;;;;5032439;28;20124;-78
2024/01/15 06:19:07;;;;;;;5.68;0.98;;;2.20;99.90;;;;;;5031167;28;20029;-80
2024/01/15 06:21:32;;;;;;;5.38;0.70;;;2.20;99.90;;;;;;5031004;28;20365;-79
2024/01/15 06:23:58;;;;;;;3.35;0.70;;;2.20;99.90;;;;;;5028600;28;20087;-78
2024/01/15 06:26:24;;;;;;;2.92;0.60;;;2.20;99.90;;;;;;5017292;28;20030;-80
2024/01/15 06:28:50;;;;;;;4.40;1.10;;;2.20;99.90;;;;;;5011774;28;20056;-79
2024/01/15 06:31:15;;;;;;;3.47;0.80;;;2.20;99.90;;;;;;5012570;28;20486;-79
2024/01/15 06:33:41;;;;;;;2.85;0.70;;;2.20;99.90;;;;;;5012342;28;20022;-79
2024/01/15 06:36:07;;;;;;;5.80;0.80;;;2.10;99.90;;;;;;5011542;28;20026;-79
2024/01/15 06:38:33;;;;;;;7.28;1.10;;;2.20;99.90;;;;;;5011418;28;20026;-79
2024/01/15 06:40:58;;;;;;;6.80;0.75;;;2.20;99.90;;;;;;5012445;28;20535;-79
2024/01/15 06:43:24;;;;;;;7.60;2.05;;;2.20;99.90;;;;;;5011680;28;20028;-79
2024/01/15 06:45:50;;;;;;;9.35;1.23;;;2.20;99.90;;;;;;5016029;28;20038;-78
2024/01/15 06:48:16;;;;;;;2.78;0.85;;;2.30;99.90;;;;;;5020666;28;20071;-79
2024/01/15 06:50:42;;;;;;;3.22;1.00;;;2.30;99.90;;;;;;5017632;28;20095;-79
2024/01/15 06:53:08;;;;;;;5.22;1.15;;;2.40;99.90;;;;;;5018838;28;20060;-79
2024/01/15 06:55:34;;;;;;;2.67;0.70;;;2.40;99.90;;;;;;5021420;28;20053;-79
2024/01/15 06:57:59;;;;;;;5.78;0.80;;;2.30;99.90;;;;;;5023659;28;20045;-79
2024/01/15 07:00:25;;;;;;;6.78;0.80;;;2.30;99.90;;;;;;5016875;28;20080;-78
2024/01/15 07:02:51;;;;;;;2.65;1.35;;;2.30;99.90;;;;;;5022391;28;20033;-80
2024/01/15 07:05:17;;;;;;;1.73;0.90;;;2.30;99.90;;;;;;5015254;28;20022;-79
2024/01/15 07:07:43;;;;;;;1.52;0.30;;;2.30;99.90;;;;;;5014262;28;20481;-80
2024/01/15 07:10:08;;;;;;;2.88;0.68;;;2.30;99.90;;;;;;5023188;28;20029;-80
2024/01/15 07:12:34;;;;;;;2.00;0.50;;;2.30;99.90;;;;;;5020533;28;20030;-80
2024/01/15 07:15:00;;;;;;;3.50;0.70;;;2.30;99.90;;;;;;5023605;28;20137;-80
2024/01/15 07:17:26;;;;;;;3.55;1.08;;;2.30;99.90;;;;;;5016485;28;20394;-80
2024/01/15 07:19:51;;;;;;;1.83;0.50;;;2.40;99.90;;;;;;5022330;28;20096;-79
2024/01/15 07:22:17;;;;;;;6.43;1.05;;;2.30;99.90;;;;;;5026134;28;20030;-80
2024/01/15 07:24:43;;;;;;;5.05;0.88;;;2.20;99.90;;;;;;5022156;28;20528;-79
2024/01/15 07:27:09;;;;;;;1.20;0.57;;;2.10;99.90;;;;;;5021306;28;20471;-79
2024/01/15 07:29:37;;;;;;;7.43;0.60;;;2.00;99.90;;;;;;5022472;28;20117;-81
2024/01/15 07:32:03;;;;;;;1.85;0.60;;;2.00;99.90;;;;;;5024847;28;20037;-80
2024/01/15 07:34:29;;;;;;;4.88;0.73;;;2.00;99.90;;;;;;5023812;28;20025;-80
2024/01/15 07:36:55;;;;;;;1.58;0.70;;;1.90;99.90;;;;;;5022793;28;20045;-79
2024/01/15 07:39:22;;;;;;;1.30;0.52;;;1.90;99.90;;;;;;5021208;28;20379;-81
2024/01/15 07:41:48;;;;;;;2.00;0.50;;;1.90;99.90;;;;;;5027731;28;20390;-79
2024/01/15 07:44:13;;;;;;;1.25;0.60;;;2.00;99.90;;;;;;5019902;28;20025;-80
2024/01/15 07:46:39;;;;;;;2.70;0.80;;;2.00;99.90;;;;;;5030221;28;20148;-82
2024/01/15 07:49:05;;;;;;;1.33;0.50;;;2.00;99.90;;;;;;5031141;28;20167;-79
2024/01/15 07:51:31;;;;;;;2.75;0.70;;;2.00;99.90;;;;;;5033544;28;20124;-80
2024/01/15 07:53:56;;;;;;;3.45;0.60;;;2.10;99.90;;;;;;5033037;28;20025;-79
2024/01/15 07:56:22;;;;;;;1.70;0.70;;;2.10;99.90;;;;;;5035037;28;20068;-79
2024/01/15 07:58:47;;;;;;;0.90;0.60;;;2.20;99.90;;;;;;5034560;28;20026;-79
2024/01/15 08:01:13;;;;;;;1.42;0.80;;;2.20;99.90;;;;;;5033338;28;20022;-81
2024/01/15 08:03:39;;;;;;;3.42;0.77;;;2.30;99.90;;;;;;5022486;28;20163;-80
2024/01/15 08:06:05;;;;;;;2.00;0.80;;;2.30;99.90;;;;;;5028785;28;20139;-80
2024/01/15 08:08:31;;;;;;;1.88;0.75;;;2.30;99.90;;;;;;5031794;28;20025;-79
2024/01/15 08:10:57;;;;;;;4.85;0.90;;;2.40;99.90;;;;;;5028701;28;20053;-80
2024/01/15 08:13:22;;;;;;;2.53;1.25;;;2.40;99.90;;;;;;5030319;28;20029;-80
2024/01/15 08:15:48;;;;;;;5.97;1.20;;;2.40;99.90;;;;;;5030175;28;20043;-80
2024/01/15 08:18:14;;;;;;;3.10;0.75;;;2.40;99.90;;;;;;5034503;28;20029;-81
2024/01/15 08:20:39;;;;;;;4.40;1.10;;;2.50;99.90;;;;;;5032933;28;20092;-82
2024/01/15 08:23:05;;;;;;;2.78;1.25;;;2.50;99.90;;;;;;5034104;28;20381;-81
2024/01/15 08:25:30;;;;;;;2.30;0.95;;;2.60;99.90;;;;;;5030919;28;20461;-80
2024/01/15 08:27:57;;;;;;;6.85;1.65;;;2.60;99.90;;;;;;5030434;28;20021;-82
2024/01/15 08:30:27;;;;;;;3.10;1.20;;;2.60;99.90;;;;;;5033108;28;20075;-80
2024/01/15 08:32:56;;;;;;;5.95;1.77;;;2.70;99.90;;;;;;5033751;28;20041;-80
2024/01/15 08:35:22;;;;;;;3.25;1.10;;;2.70;99.90;;;;;;5033485;28;20029;-80
2024/01/15 08:37:50;;;;;;;2.20;1.25;;;2.70;99.90;;;;;;5034173;28;20045;-83
2024/01/15 08:40:16;;;;;;;4.35;1.65;;;2.80;99.90;;;;;;5031407;28;20060;-81
2024/01/15 08:42:42;;;;;;;2.10;1.20;;;2.80;99.90;;;;;;5033284;28;20057;-81
2024/01/15 08:45:08;;;;;;;4.40;1.60;;;2.80;99.90;;;;;;5031700;28;20029;-81
2024/01/15 08:47:35;;;;;;;5.75;1.77;;;2.90;99.90;;;;;;5014178;28;20040;-81
2024/01/15 08:50:00;;;;;;;5.93;1.85;;;2.90;99.90;;;;;;5013469;28;20516;-81
2024/01/15 08:52:26;;;;;;;7.28;1.85;;;2.90;99.90;;;;;;5020965;28;20089;-82
2024/01/15 08:54:52;;;;;;;6.32;1.30;;;2.90;99.90;;;;;;5033296;28;20508;-82
2024/01/15 08:57:17;;;;;;;12.18;2.50;;;2.90;99.90;;;;;;5032936;28;20033;-81
2024/01/15 08:59:43;;;;;;;9.23;1.33;;;2.90;99.90;;;;;;5033400;28;20128;-81
2024/01/15 09:02:08;;;;;;;7.47;2.30;;;2.90;99.90;;;;;;5017049;28;20021;-80
2024/01/15 09:04:34;;;;;;;6.88;1.42;;;2.90;99.90;;;;;;5014776;28;20026;-80
2024/01/15 09:07:00;;;;;;;8.73;1.58;;;3.50;99.90;;;;;;5029262;28;20022;-82
2024/01/15 09:09:25;;;;;;;13.20;1.55;;;2.90;99.90;;;;;;5023211;28;20029;-80
2024/01/15 09:11:51;;;;;;;12.48;1.42;;;3.00;99.90;;;;;;5024255;28;20029;-80
2024/01/15 09:14:17;;;;;;;8.30;1.48;;;3.00;99.90;;;;;;5033347;28;20167;-79
2024/01/15 09:16:43;;;;;;;3.90;1.10;;;3.00;99.90;;;;;;5032707;28;20529;-80
2024/01/15 09:19:08;;;;;;;4.38;0.85;;;3.00;99.90;;;;;;5033944;28;20033;-80
2024/01/15 09:21:34;;;;;;;3.33;1.10;;;3.00;99.90;;;;;;5033161;28;20148;-80
2024/01/15 09:23:59;;;;;;;3.60;0.90;;;2.80;99.90;;;;;;5033221;28;20080;-80
2024/01/15 09:26:25;;;;;;;3.75;0.68;;;2.60;99.90;;;;;;5029803;28;20021;-82
2024/01/15 09:28:51;;;;;;;10.43;2.67;;;2.50;99.90;;;;;;5033436;28;20020;-81
2024/01/15 09:31:17;;;;;;;4.68;0.82;;;2.30;99.90;;;;;;5014989;28;20025;-80
2024/01/15 09:33:44;;;;;;;3.88;0.90;;;2.30;99.90;;;;;;5013579;28;20524;-78
2024/01/15 09:36:09;;;;;;;3.00;0.80;;;2.30;99.90;;;;;;5017520;28;20025;-81
2024/01/15 09:38:35;;;;;;;2.78;0.70;;;2.30;99.90;;;;;;5032418;28;20091;-81
2024/01/15 09:41:00;;;;;;;4.63;0.88;;;2.30;99.90;;;;;;5021182;28;20485;-80
2024/01/15 09:43:26;;;;;;;4.93;0.60;;;2.30;99.90;;;;;;5013490;28;20069;-81
2024/01/15 09:45:53;;;;;;;5.05;0.75;;;2.30;99.90;;;;;;5012250;28;20137;-80
2024/01/15 09:48:18;;;;;;;7.38;0.75;;;2.30;99.90;;;;;;5013110;28;20041;-80
2024/01/15 09:50:45;;;;;;;3.17;0.80;;;2.40;99.90;;;;;;5014369;28;20030;-80
2024/01/15 09:53:11;;;;;;;3.08;0.65;;;2.40;99.90;;;;;;5032122;28;20477;-80
2024/01/15 09:55:40;;;;;;;5.07;0.82;;;2.40;99.90;;;;;;5032252;28;20059;-80
2024/01/15 09:58:05;;;;;;;6.45;1.30;;;2.50;99.90;;;;;;5031877;28;20179;-80
2024/01/15 10:00:33;;;;;;;7.57;0.75;;;2.50;99.90;;;;;;5030196;28;20403;-81
2024/01/15 10:03:01;;;;;;;8.93;1.75;;;2.50;99.90;;;;;;5032395;28;20021;-81
2024/01/15 10:05:27;;;;;;;4.55;0.90;;;2.50;99.90;;;;;;5029699;28;20112;-81
2024/01/15 10:07:54;;;;;;;8.00;1.23;;;2.60;99.90;;;;;;5031870;28;20125;-80
2024/01/15 10:10:21;;;;;;;9.00;0.70;;;2.60;99.90;;;;;;5030699;28;20025;-81
2024/01/15 10:12:47;;;;;;;9.45;1.20;;;2.60;99.90;;;;;;5030293;28;20197;-81
2024/01/15 10:15:13;;;;;;;5.40;0.77;;;2.70;99.90;;;;;;5031550;28;20095;-80
2024/01/15 10:17:39;;;;;;;7.40;1.40;;;2.80;99.90;;;;;;5029787;28;20171;-80
2024/01/15 10:20:12;;;;;;;4.07;1.00;;;2.80;99.90;;;;;;5030231;28;20024;-80
2024/01/15 10:22:46;;;;;;;5.35;1.60;;;3.20;99.90;;;;;;5028327;28;20148;-81
2024/01/15 10:25:13;;;;;;;11.05;1.20;;;2.90;99.90;;;;;;5031042;28;20033;-82
2024/01/15 10:27:41;;;;;;;8.30;1.40;;;2.90;99.90;;;;;;5031913;28;20025;-80
2024/01/15 10:30:07;;;;;;;4.15;0.98;;;2.90;99.90;;;;;;5032561;28;20029;-80
2024/01/15 10:32:33;;;;;;;4.65;0.90;;;2.90;99.90;;;;;;5031943;28;20040;-80
2024/01/15 10:34:59;;;;;;;7.72;0.80;;;2.90;99.90;;;;;;5031665;28;20021;-81
2024/01/15 10:37:25;;;;;;;5.82;0.85;;;3.00;99.90;;;;;;5030105;28;20040;-81
2024/01/15 10:39:51;;;;;;;4.03;1.23;;;3.00;99.90;;;;;;5012716;28;20536;-80
2024/01/15 10:42:18;;;;;;;5.30;0.90;;;3.00;99.90;;;;;;5022675;28;20026;-80
2024/01/15 10:44:44;;;;;;;2.67;0.70;;;3.00;99.90;;;;;;5012122;28;20561;-79
2024/01/15 10:47:11;;;;;;;2.50;0.77;;;3.00;99.90;;;;;;5012626;28;20421;-80
2024/01/15 10:49:36;;;;;;;8.02;1.10;;;3.00;99.90;;;;;;5011463;28;20405;-91
2024/01/15 10:52:03;;;;;;;6.47;1.15;;;2.90;99.90;;;;;;5012611;28;20260;-86
2024/01/15 10:54:29;;;;;;;7.03;2.20;;;2.90;99.90;;;;;;5011977;28;20030;-81
2024/01/15 10:56:56;;;;;;;5.97;0.60;;;2.80;99.90;;;;;;5011823;28;20045;-82
2024/01/15 10:59:22;;;;;;;2.00;0.90;;;2.80;99.90;;;;;;5018855;28;20025;-81
2024/01/15 11:01:50;;;;;;;156.32;8.75;;;2.80;99.90;;;;;;5019817;28;20084;-90
2024/01/15 11:04:16;;;;;;;181.70;13.02;;;2.80;99.90;;;;;;5035560;28;20025;-89
2024/01/15 11:07:05;;;;;;;4.85;0.73;;;2.90;99.90;;;;;;5033465;28;20048;-90
2024/01/15 11:09:30;;;;;;;6.03;1.70;;;2.90;99.90;;;;;;5027652;28;20025;-86
2024/01/15 11:12:21;;;;;;;4.25;0.93;;;2.90;99.90;;;;;;5033148;28;20025;-90
2024/01/15 11:14:48;;;;;;;5.55;1.15;;;3.10;99.90;;;;;;5032474;28;20087;-88
2024/01/15 11:17:27;;;;;;;3.95;1.00;;;3.20;99.90;;;;;;5029686;28;20041;-89
2024/01/15 11:22:49;;;;;;;5.20;0.77;;;2.90;99.90;;;;;;5074410;22;20101;-90
2024/01/15 11:25:23;;;;;;;5.72;0.80;;;2.90;99.90;;;;;;5072387;28;20016;-88
2024/01/15 11:27:52;;;;;;;5.88;1.60;;;2.80;99.90;;;;;;5071282;28;20024;-86
2024/01/15 11:30:19;;;;;;;10.27;1.65;;;2.90;99.90;;;;;;5070984;28;20066;-86
2024/01/15 11:32:46;;;;;;;2.13;0.80;;;2.80;99.90;;;;;;5071230;28;20127;-88
2024/01/15 11:35:14;;;;;;;6.82;1.70;;;2.90;99.90;;;;;;5072661;28;20038;-87
2024/01/15 11:37:54;;;;;;;6.78;1.15;;;2.90;99.90;;;;;;5071017;28;20044;-88
2024/01/15 11:40:22;;;;;;;5.05;1.10;;;3.00;99.90;;;;;;5071174;28;20025;-89
2024/01/15 11:42:49;;;;;;;7.85;1.50;;;3.10;99.90;;;;;;5071721;28;20115;-91
2024/01/15 11:45:19;;;;;;;5.75;1.33;;;3.10;99.90;;;;;;5070786;28;20495;-89
2024/01/15 11:47:45;;;;;;;5.80;1.45;;;3.20;99.90;;;;;;5070046;28;20050;-90
2024/01/15 11:50:11;;;;;;;4.13;1.35;;;3.20;99.90;;;;;;5072869;28;20020;-87
2024/01/15 11:52:38;;;;;;;9.85;1.05;;;3.20;99.90;;;;;;5071275;28;20479;-89
2024/01/15 11:55:11;;;;;;;9.55;1.17;;;3.20;99.90;;;;;;5069015;28;20025;-90
2024/01/15 11:57:46;;;;;;;5.47;1.02;;;3.10;99.90;;;;;;5070426;28;20036;-87
2024/01/15 12:00:13;;;;;;;4.85;1.10;;;3.10;99.90;;;;;;5071253;28;20028;-86
2024/01/15 12:02:49;;;;;;;4.88;1.00;;;3.00;99.90;;;;;;5046091;28;20032;-87
2024/01/15 12:05:16;;;;;;;6.38;0.90;;;3.00;99.90;;;;;;5073202;28;20020;-89
2024/01/15 12:07:43;;;;;;;3.67;0.95;;;3.00;99.90;;;;;;5053174;28;20025;-89
2024/01/15 12:10:13;;;;;;;7.43;1.13;;;2.90;99.90;;;;;;5063823;28;20013;-89
2024/01/15 12:12:59;;;;;;;6.88;1.25;;;3.00;99.90;;;;;;5080147;28;20107;-88
2024/01/15 12:15:27;;;;;;;4.15;0.82;;;2.90;99.90;;;;;;5079901;28;20052;-86
2024/01/15 12:17:57;;;;;;;2.60;0.70;;;2.90;99.90;;;;;;5078628;28;20033;-88
2024/01/15 12:20:23;;;;;;;6.82;2.08;;;3.00;99.90;;;;;;5078753;28;20111;-87
2024/01/15 12:22:51;;;;;;;6.80;1.00;;;2.90;99.90;;;;;;5071388;28;20045;-90
2024/01/15 12:25:16;;;;;;;3.38;0.75;;;2.90;99.90;;;;;;5075768;28;20107;-89
2024/01/15 12:27:42;;;;;;;12.13;1.45;;;2.90;99.90;;;;;;5076592;28;20059;-87
2024/01/15 12:30:11;;;;;;;8.27;1.50;;;2.90;99.90;;;;;;5061115;28;20032;-87
2024/01/15 12:32:37;;;;;;;3.33;1.05;;;2.90;99.90;;;;;;5062543;28;20557;-86
2024/01/15 12:35:03;;;;;;;4.60;1.63;;;3.10;99.90;;;;;;5070933;28;20021;-86
2024/01/15 12:37:29;;;;;;;6.72;1.05;;;2.90;99.90;;;;;;5073808;28;20044;-86
2024/01/15 12:39:55;;;;;;;5.25;1.67;;;3.40;99.90;;;;;;5071480;28;20031;-87
2024/01/15 12:42:21;;;;;;;11.55;1.80;;;3.00;99.90;;;;;;5054796;28;20365;-86
2024/01/15 12:44:47;;;;;;;7.07;1.10;;;3.10;99.90;;;;;;5073680;28;20028;-86
2024/01/15 12:47:14;;;;;;;7.50;1.42;;;3.10;99.90;;;;;;5073217;28;20021;-86
2024/01/15 12:49:39;;;;;;;6.38;1.40;;;3.20;99.90;;;;;;5073735;28;20025;-87
2024/01/15 12:52:09;;;;;;;8.15;1.30;;;3.20;99.90;;;;;;5073939;28;20028;-84